Time;durP1;ratioP1;P1;durP2;ratioP2;P2;SDS_P1;SDS_P2;PMS_P1;PMS_P2;Temp;Humidity;BMP_temperature;BMP_pressure;BME280_temperature;BME280_humidity;BME280_pressure;Samples;Min_cycle;Max_cycle;Signal;HPM_P1;HPM_P2
2022/10/13 00:00:46;;;;;;;20.58;15.63;;;9.60;99.90;;;;;;7377413;19;20018;-39
2022/10/13 00:03:14;;;;;;;26.80;16.83;;;9.60;99.90;;;;;;7373289;19;20346;-41
2022/10/13 00:05:42;;;;;;;22.73;14.57;;;9.60;99.90;;;;;;7369135;19;20715;-40
2022/10/13 00:08:10;;;;;;;27.15;17.25;;;9.60;99.90;;;;;;7375753;19;20018;-39
2022/10/13 00:10:41;;;;;;;21.65;16.90;;;9.50;99.90;;;;;;7372509;19;20043;-40
2022/10/13 00:13:12;;;;;;;22.65;16.15;;;9.60;99.90;;;;;;7377314;19;20022;-40
2022/10/13 00:15:41;;;;;;;20.35;16.23;;;9.60;99.90;;;;;;7372797;19;20022;-39
2022/10/13 00:18:07;;;;;;;26.92;16.80;;;9.60;99.90;;;;;;7377898;19;20011;-39
2022/10/13 00:20:34;;;;;;;21.85;16.15;;;9.60;99.90;;;;;;7373383;19;20085;-39
2022/10/13 00:23:00;;;;;;;24.73;16.13;;;9.60;99.90;;;;;;7374427;19;20110;-39
2022/10/13 00:25:27;;;;;;;22.15;16.20;;;9.60;99.90;;;;;;7367877;19;20018;-39
2022/10/13 00:27:53;;;;;;;26.67;17.35;;;9.60;99.90;;;;;;7374416;19;20521;-38
2022/10/13 00:30:20;;;;;;;24.30;17.05;;;9.60;99.90;;;;;;7371571;19;20014;-39
2022/10/13 00:32:48;;;;;;;23.08;16.35;;;9.60;99.90;;;;;;7373018;19;20387;-39
2022/10/13 00:35:14;;;;;;;24.13;17.63;;;9.60;99.90;;;;;;7375213;19;20392;-39
2022/10/13 00:37:41;;;;;;;25.20;17.27;;;9.60;99.90;;;;;;7373930;19;20022;-40
2022/10/13 00:40:07;;;;;;;27.48;17.13;;;9.60;99.90;;;;;;7376118;19;20454;-40
2022/10/13 00:42:34;;;;;;;23.15;15.68;;;9.60;99.90;;;;;;7373269;19;20018;-40
2022/10/13 00:45:32;;;;;;;24.25;16.55;;;9.60;99.90;;;;;;7371019;19;20042;-41
2022/10/13 00:48:00;;;;;;;21.67;17.08;;;9.60;99.90;;;;;;7372585;19;20018;-39
2022/10/13 00:50:36;;;;;;;25.15;16.52;;;9.60;99.90;;;;;;7369693;19;20022;-40
2022/10/13 00:53:05;;;;;;;24.80;17.05;;;9.60;99.90;;;;;;7373677;19;20111;-38
2022/10/13 00:55:33;;;;;;;21.80;16.08;;;9.50;99.90;;;;;;7375601;19;20022;-40
2022/10/13 00:58:04;;;;;;;21.48;15.80;;;9.60;99.90;;;;;;7373337;19;21200;-40
2022/10/13 01:00:31;;;;;;;26.00;16.55;;;9.50;99.90;;;;;;7372518;19;20019;-37
2022/10/13 01:03:04;;;;;;;27.08;17.15;;;9.50;99.90;;;;;;7374918;19;20211;-40
2022/10/13 01:05:30;;;;;;;21.98;16.88;;;9.50;99.90;;;;;;7374368;19;20048;-41
2022/10/13 01:07:58;;;;;;;24.58;16.80;;;9.50;99.90;;;;;;7370663;19;20023;-39
2022/10/13 01:10:54;;;;;;;24.55;16.60;;;9.60;99.90;;;;;;7374773;19;20026;-39
2022/10/13 01:13:44;;;;;;;24.05;16.52;;;9.60;99.90;;;;;;7372256;19;20364;-39
2022/10/13 01:16:23;;;;;;;23.77;17.20;;;9.60;99.90;;;;;;7372784;19;20050;-42
2022/10/13 01:19:14;;;;;;;26.50;17.27;;;9.70;99.90;;;;;;7372137;19;20018;-38
2022/10/13 01:22:05;;;;;;;27.70;17.03;;;9.70;99.90;;;;;;7372343;19;20014;-38
2022/10/13 01:25:12;;;;;;;24.23;16.40;;;9.70;99.90;;;;;;7374401;19;20027;-46
2022/10/13 01:28:03;;;;;;;27.42;17.60;;;9.70;99.90;;;;;;7369537;19;20015;-39
2022/10/13 01:30:36;;;;;;;28.48;17.98;;;9.70;99.90;;;;;;7368773;19;20018;-48
2022/10/13 01:33:08;;;;;;;22.67;16.52;;;9.70;99.90;;;;;;7365753;19;20086;-47
2022/10/13 01:35:52;;;;;;;26.08;16.40;;;9.60;99.90;;;;;;7375669;19;20352;-50
2022/10/13 01:38:51;;;;;;;23.70;17.10;;;9.60;99.90;;;;;;7374470;19;20591;-45
2022/10/13 01:41:20;;;;;;;23.55;17.20;;;9.70;99.90;;;;;;7371038;19;20027;-50
2022/10/13 01:44:05;;;;;;;28.17;18.42;;;9.60;99.90;;;;;;7367788;19;20019;-50
2022/10/13 01:46:37;;;;;;;23.55;17.77;;;9.50;99.90;;;;;;7369151;19;20022;-48
2022/10/13 01:49:10;;;;;;;23.77;17.60;;;9.60;99.90;;;;;;7373885;19;20018;-48
2022/10/13 01:51:37;;;;;;;26.45;18.17;;;9.50;99.90;;;;;;7369783;19;20019;-39
2022/10/13 01:54:04;;;;;;;23.55;16.90;;;9.50;99.90;;;;;;7371057;19;20022;-38
2022/10/13 01:56:30;;;;;;;25.52;17.45;;;9.50;99.90;;;;;;7373198;19;20044;-40
2022/10/13 01:59:00;;;;;;;25.45;17.20;;;9.50;99.90;;;;;;7371736;19;20025;-39
2022/10/13 02:01:37;;;;;;;22.98;18.02;;;9.50;99.90;;;;;;7371369;19;20576;-39
2022/10/13 02:04:20;;;;;;;25.77;18.13;;;9.60;99.90;;;;;;7367722;19;20019;-39
2022/10/13 02:07:11;;;;;;;23.35;16.88;;;9.60;99.90;;;;;;7375384;19;20014;-39
2022/10/13 02:09:58;;;;;;;22.77;17.83;;;9.60;99.90;;;;;;7370494;19;20011;-47
2022/10/13 02:12:41;;;;;;;25.67;18.23;;;9.60;99.90;;;;;;7373301;19;20102;-39
2022/10/13 02:15:14;;;;;;;20.48;16.60;;;9.60;99.90;;;;;;7369472;19;20022;-39
2022/10/13 02:17:41;;;;;;;29.15;18.75;;;9.60;99.90;;;;;;7373701;19;20014;-40
2022/10/13 02:20:09;;;;;;;24.75;17.60;;;9.60;99.90;;;;;;7381826;19;20018;-39
2022/10/13 02:22:41;;;;;;;29.45;19.02;;;9.50;99.90;;;;;;7378815;19;20022;-38
2022/10/13 02:25:08;;;;;;;;;;;9.50;99.90;;;;;;7379705;19;20350;-39
2022/10/13 02:27:34;;;;;;;26.13;18.08;;;9.60;99.90;;;;;;7381757;19;19942;-39
2022/10/13 02:30:00;;;;;;;24.05;18.08;;;9.60;99.90;;;;;;7382411;19;20494;-38
2022/10/13 02:32:30;;;;;;;31.77;18.38;;;9.50;99.90;;;;;;7378646;19;20070;-39
2022/10/13 02:34:57;;;;;;;27.67;19.15;;;9.60;99.90;;;;;;7377146;19;20018;-39
2022/10/13 02:37:26;;;;;;;30.23;19.35;;;9.60;99.90;;;;;;7377708;19;20022;-39
2022/10/13 02:39:52;;;;;;;25.88;18.73;;;9.60;99.90;;;;;;7379505;19;20043;-38
2022/10/13 02:42:19;;;;;;;23.60;18.30;;;9.60;99.90;;;;;;7377946;19;20015;-39
2022/10/13 02:44:45;;;;;;;27.52;19.88;;;9.60;99.90;;;;;;7374252;19;20025;-39
2022/10/13 02:47:12;;;;;;;26.75;19.00;;;9.60;99.90;;;;;;7377962;19;20015;-39
2022/10/13 02:49:38;;;;;;;28.50;19.33;;;9.60;99.90;;;;;;7380021;19;20568;-39
2022/10/13 02:52:04;;;;;;;24.35;19.17;;;9.60;99.90;;;;;;7374254;19;20587;-38
2022/10/13 02:54:30;;;;;;;27.35;18.42;;;9.60;99.90;;;;;;7378056;19;20524;-39
2022/10/13 02:56:57;;;;;;;24.33;18.90;;;9.70;99.90;;;;;;7376557;19;20019;-39
2022/10/13 02:59:23;;;;;;;30.98;19.52;;;9.70;99.90;;;;;;7376945;19;20018;-49
2022/10/13 03:01:49;;;;;;;29.42;20.15;;;9.70;99.90;;;;;;7379690;19;20604;-45
2022/10/13 03:04:15;;;;;;;27.23;18.75;;;9.70;99.90;;;;;;7377396;19;20018;-48
2022/10/13 03:06:42;;;;;;;23.20;19.13;;;9.70;99.90;;;;;;7377399;19;20030;-48
2022/10/13 03:09:09;;;;;;;28.98;19.40;;;9.70;99.90;;;;;;7375830;19;20568;-48
2022/10/13 03:11:35;;;;;;;26.65;19.02;;;9.80;99.90;;;;;;7373386;19;20503;-38
2022/10/13 03:14:02;;;;;;;28.70;19.70;;;9.80;99.90;;;;;;7377154;19;20021;-39
2022/10/13 03:16:28;;;;;;;26.38;19.10;;;9.80;99.90;;;;;;7373605;19;20651;-39
2022/10/13 03:18:54;;;;;;;28.88;20.00;;;9.80;99.90;;;;;;7375847;19;20467;-38
2022/10/13 03:21:20;;;;;;;24.35;19.65;;;9.80;99.90;;;;;;7378750;19;20026;-39
2022/10/13 03:23:47;;;;;;;25.20;19.70;;;9.80;99.90;;;;;;7375807;19;20018;-38
2022/10/13 03:26:14;;;;;;;26.48;20.38;;;9.80;99.90;;;;;;7380409;19;20104;-38
2022/10/13 03:28:40;;;;;;;22.60;18.60;;;9.80;99.90;;;;;;7371901;19;20022;-39
2022/10/13 03:31:09;;;;;;;31.05;20.45;;;9.80;99.90;;;;;;7373772;19;20489;-39
2022/10/13 03:33:35;;;;;;;29.73;21.02;;;9.80;99.90;;;;;;7376765;19;20305;-39
2022/10/13 03:36:04;;;;;;;30.50;21.48;;;9.90;99.90;;;;;;7375863;19;20547;-49
2022/10/13 03:38:32;;;;;;;28.38;22.00;;;9.90;99.90;;;;;;7376005;19;20056;-49
2022/10/13 03:41:13;;;;;;;27.05;21.85;;;9.90;99.90;;;;;;7371481;19;20037;-46
2022/10/13 03:43:40;;;;;;;32.85;22.63;;;9.90;99.90;;;;;;7374880;19;20031;-49
2022/10/13 03:46:07;;;;;;;29.92;22.05;;;9.90;99.90;;;;;;7370962;19;20050;-45
2022/10/13 03:48:35;;;;;;;28.40;22.50;;;9.90;99.90;;;;;;7377971;19;20022;-53
2022/10/13 03:51:10;;;;;;;32.47;23.02;;;9.90;99.90;;;;;;7373121;19;20482;-38
2022/10/13 03:53:39;;;;;;;36.03;24.70;;;9.90;99.90;;;;;;7375170;19;20464;-37
2022/10/13 03:56:06;;;;;;;32.15;24.48;;;9.90;99.90;;;;;;7375765;19;21029;-37
2022/10/13 03:58:34;;;;;;;36.00;24.52;;;9.90;99.90;;;;;;7374725;19;20018;-37
2022/10/13 04:01:04;;;;;;;34.97;27.10;;;9.90;99.90;;;;;;7373768;19;20517;-37
2022/10/13 04:03:33;;;;;;;32.97;24.33;;;9.90;99.90;;;;;;7374725;19;20452;-37
2022/10/13 04:06:01;;;;;;;44.72;26.58;;;10.00;99.90;;;;;;7370411;19;20497;-37
2022/10/13 04:08:29;;;;;;;39.28;26.52;;;9.90;99.90;;;;;;7370793;19;20078;-37
2022/10/13 04:11:04;;;;;;;38.42;25.20;;;10.00;99.90;;;;;;7375612;19;20014;-37
2022/10/13 04:13:30;;;;;;;34.55;28.08;;;10.00;99.90;;;;;;7376084;19;20018;-36
2022/10/13 04:16:13;;;;;;;42.75;28.00;;;10.00;99.90;;;;;;7374935;19;20026;-37
2022/10/13 04:18:40;;;;;;;35.55;28.77;;;10.00;99.90;;;;;;7375072;19;20025;-49
2022/10/13 04:21:12;;;;;;;39.00;27.10;;;10.00;99.90;;;;;;7372681;19;20010;-48
2022/10/13 04:23:38;;;;;;;42.92;29.00;;;10.00;99.90;;;;;;7373741;19;20062;-37
2022/10/13 04:26:05;;;;;;;44.08;31.60;;;10.00;99.90;;;;;;7369871;19;20082;-46
2022/10/13 04:28:34;;;;;;;41.78;30.63;;;10.00;99.90;;;;;;7376056;19;20030;-41
2022/10/13 04:31:03;;;;;;;49.33;32.50;;;10.00;99.90;;;;;;7375343;19;20078;-36
2022/10/13 04:33:30;;;;;;;46.33;31.70;;;9.90;99.90;;;;;;7376731;19;20131;-37
2022/10/13 04:35:56;;;;;;;46.53;30.50;;;9.90;99.90;;;;;;7370424;19;20064;-37
2022/10/13 04:38:23;;;;;;;47.38;31.85;;;9.90;99.90;;;;;;7374635;19;20019;-37
2022/10/13 04:40:50;;;;;;;47.75;31.65;;;10.00;99.90;;;;;;7372311;19;20025;-37
2022/10/13 04:43:16;;;;;;;44.08;30.23;;;10.00;99.90;;;;;;7376511;19;20382;-37
2022/10/13 04:45:43;;;;;;;41.28;30.10;;;10.00;99.90;;;;;;7372423;19;20029;-49
2022/10/13 04:48:09;;;;;;;45.75;31.67;;;9.90;99.90;;;;;;7372513;19;20026;-36
2022/10/13 04:50:36;;;;;;;43.65;30.48;;;10.00;99.90;;;;;;7370466;19;20018;-36
2022/10/13 04:53:03;;;;;;;53.25;32.33;;;10.00;99.90;;;;;;7370211;19;20445;-37
2022/10/13 04:55:30;;;;;;;45.38;32.90;;;10.00;99.90;;;;;;7371464;19;20037;-37
2022/10/13 04:57:56;;;;;;;48.15;33.63;;;10.00;99.90;;;;;;7368164;19;20018;-36
2022/10/13 05:00:22;;;;;;;44.50;32.00;;;10.00;99.90;;;;;;7368470;19;20011;-36
2022/10/13 05:02:49;;;;;;;50.17;33.58;;;10.00;99.90;;;;;;7364775;19;20019;-37
2022/10/13 05:05:16;;;;;;;51.13;32.60;;;10.00;99.90;;;;;;7366961;19;21028;-49
2022/10/13 05:07:42;;;;;;;47.95;32.85;;;10.00;99.90;;;;;;7366769;19;20051;-47
2022/10/13 05:10:09;;;;;;;46.80;33.28;;;10.00;99.90;;;;;;7368853;19;20022;-48
2022/10/13 05:12:36;;;;;;;50.47;32.78;;;10.00;99.90;;;;;;7371349;19;20417;-46
2022/10/13 05:15:03;;;;;;;52.83;33.78;;;10.00;99.90;;;;;;7368292;19;20026;-36
2022/10/13 05:17:30;;;;;;;41.80;30.38;;;10.00;99.90;;;;;;7365646;19;20022;-36
2022/10/13 05:19:56;;;;;;;47.00;31.52;;;10.00;99.90;;;;;;7366675;19;20390;-36
2022/10/13 05:22:24;;;;;;;47.28;33.25;;;10.00;99.90;;;;;;7368588;19;20072;-36
2022/10/13 05:24:51;;;;;;;47.95;32.42;;;10.00;99.90;;;;;;7369743;19;20367;-38
2022/10/13 05:27:17;;;;;;;54.75;33.10;;;10.00;99.90;;;;;;7371942;19;20019;-37
2022/10/13 05:29:44;;;;;;;45.92;33.28;;;10.00;99.90;;;;;;7369668;19;20042;-37
2022/10/13 05:32:11;;;;;;;43.33;31.08;;;10.10;99.90;;;;;;7369932;19;20048;-38
2022/10/13 05:34:37;;;;;;;43.20;31.17;;;10.00;99.90;;;;;;7373454;19;20027;-38
2022/10/13 05:37:04;;;;;;;44.90;30.17;;;10.00;99.90;;;;;;7370969;19;20014;-38
2022/10/13 05:39:33;;;;;;;47.35;32.15;;;10.00;99.90;;;;;;7372588;19;20545;-38
2022/10/13 05:42:00;;;;;;;50.13;33.42;;;10.00;99.90;;;;;;7371107;19;20497;-37
2022/10/13 05:44:26;;;;;;;48.58;32.60;;;10.00;99.90;;;;;;7371279;19;20018;-35
2022/10/13 05:46:53;;;;;;;41.95;30.67;;;10.00;99.90;;;;;;7367539;19;20025;-38
2022/10/13 05:49:19;;;;;;;53.55;32.40;;;10.10;99.90;;;;;;7369161;19;20018;-36
2022/10/13 05:51:50;;;;;;;48.03;32.17;;;10.10;99.90;;;;;;7367174;19;20090;-37
2022/10/13 05:54:42;;;;;;;48.58;31.77;;;10.10;99.90;;;;;;7377759;19;20022;-44
2022/10/13 05:57:17;;;;;;;45.75;31.58;;;10.00;99.90;;;;;;7378069;19;20028;-48
2022/10/13 05:59:52;;;;;;;46.03;30.70;;;10.10;99.90;;;;;;7373588;19;20082;-47
2022/10/13 06:02:25;;;;;;;43.58;31.63;;;10.10;99.90;;;;;;7379157;19;20026;-48
2022/10/13 06:04:55;;;;;;;43.15;30.48;;;10.10;99.90;;;;;;7379106;19;20017;-46
2022/10/13 06:07:22;;;;;;;41.58;30.45;;;10.10;99.90;;;;;;7372498;19;20014;-45
2022/10/13 06:09:49;;;;;;;43.45;31.05;;;10.10;99.90;;;;;;7376574;19;20415;-46
2022/10/13 06:12:16;;;;;;;45.53;31.13;;;10.10;99.90;;;;;;7373900;19;20014;-46
2022/10/13 06:14:43;;;;;;;44.13;32.78;;;10.10;99.90;;;;;;7378770;19;20026;-45
2022/10/13 06:17:11;;;;;;;43.55;30.08;;;10.20;99.90;;;;;;7375787;19;20032;-45
2022/10/13 06:19:44;;;;;;;52.65;33.40;;;10.20;99.90;;;;;;7380943;19;20035;-45
2022/10/13 06:22:11;;;;;;;48.13;32.08;;;10.20;99.90;;;;;;7376883;19;20045;-46
2022/10/13 06:24:38;;;;;;;44.13;30.80;;;10.20;99.90;;;;;;7374135;19;20015;-46
2022/10/13 06:27:09;;;;;;;45.38;31.60;;;10.20;99.90;;;;;;7376322;19;20488;-44
2022/10/13 06:29:36;;;;;;;45.17;29.63;;;10.20;99.90;;;;;;7374946;19;20022;-45
2022/10/13 06:32:03;;;;;;;41.70;30.85;;;10.30;99.90;;;;;;7372410;19;20477;-46
2022/10/13 06:34:29;;;;;;;45.33;32.30;;;10.30;99.90;;;;;;7373902;19;20045;-49
2022/10/13 06:36:57;;;;;;;51.90;33.42;;;10.30;99.90;;;;;;7376061;19;20122;-44
2022/10/13 06:39:23;;;;;;;53.85;39.08;;;10.30;99.90;;;;;;7373518;19;20025;-47
2022/10/13 06:41:51;;;;;;;47.47;35.80;;;10.40;99.90;;;;;;7378129;19;20011;-45
2022/10/13 06:44:18;;;;;;;42.78;34.83;;;10.50;99.90;;;;;;7374681;19;20372;-47
2022/10/13 06:46:44;;;;;;;40.83;31.30;;;10.50;99.90;;;;;;7368096;19;20018;-46
2022/10/13 06:49:11;;;;;;;43.42;31.40;;;10.50;99.90;;;;;;7377170;19;21038;-46
2022/10/13 06:51:37;;;;;;;41.17;29.83;;;10.60;99.90;;;;;;7375394;19;20461;-52
2022/10/13 06:54:04;;;;;;;52.40;39.28;;;10.60;99.90;;;;;;7372156;19;20018;-47
2022/10/13 06:56:32;;;;;;;42.25;30.58;;;10.60;99.90;;;;;;7371365;19;20021;-45
2022/10/13 06:59:05;;;;;;;39.70;28.70;;;10.70;99.90;;;;;;7368043;19;20018;-50
2022/10/13 07:01:31;;;;;;;36.92;29.75;;;10.70;99.90;;;;;;7371620;19;20384;-46
2022/10/13 07:03:59;;;;;;;41.03;28.80;;;10.70;99.90;;;;;;7377966;19;20026;-48
2022/10/13 07:06:25;;;;;;;70.88;61.78;;;10.70;99.90;;;;;;7372135;19;20018;-46
2022/10/13 07:08:53;;;;;;;36.45;30.00;;;10.80;99.90;;;;;;7373375;19;20026;-51
2022/10/13 07:11:20;;;;;;;36.85;28.33;;;10.80;99.90;;;;;;7375338;19;20404;-48
2022/10/13 07:13:53;;;;;;;41.55;29.05;;;10.70;99.90;;;;;;7376515;19;20082;-51
2022/10/13 07:16:19;;;;;;;41.28;28.75;;;10.70;99.90;;;;;;7364434;19;20019;-50
2022/10/13 07:18:46;;;;;;;37.83;27.95;;;10.60;99.90;;;;;;7290858;19;20053;-47
2022/10/13 07:21:13;;;;;;;40.50;28.98;;;10.70;99.90;;;;;;7372705;19;20655;-47
2022/10/13 07:23:43;;;;;;;44.13;30.00;;;10.70;99.90;;;;;;7374942;19;20018;-50
2022/10/13 07:26:13;;;;;;;43.58;30.95;;;10.70;99.90;;;;;;7373309;19;20035;-46
2022/10/13 07:28:40;;;;;;;40.88;30.52;;;10.70;99.90;;;;;;7373220;19;20873;-46
2022/10/13 07:31:12;;;;;;;42.63;29.20;;;10.70;99.90;;;;;;7373282;19;20023;-47
2022/10/13 07:33:40;;;;;;;41.67;29.90;;;10.70;99.90;;;;;;7375434;19;20026;-49
2022/10/13 07:36:07;;;;;;;46.60;29.90;;;10.80;99.90;;;;;;7370132;19;20363;-48
2022/10/13 07:38:34;;;;;;;40.60;29.98;;;10.80;99.90;;;;;;7374944;19;20015;-52
2022/10/13 07:41:04;;;;;;;42.55;30.67;;;10.80;99.90;;;;;;7372346;19;20456;-48
2022/10/13 07:43:32;;;;;;;38.67;30.05;;;10.90;99.90;;;;;;7373308;19;20022;-50
2022/10/13 07:46:00;;;;;;;43.35;30.77;;;10.90;99.90;;;;;;7364454;19;20073;-48
2022/10/13 07:48:27;;;;;;;42.03;29.48;;;11.00;99.90;;;;;;7374024;19;20972;-47
2022/10/13 07:50:54;;;;;;;40.40;29.27;;;11.10;99.90;;;;;;7371347;19;20436;-47
2022/10/13 07:53:20;;;;;;;38.92;30.92;;;11.10;99.90;;;;;;7368105;19;20033;-47
2022/10/13 07:55:46;;;;;;;42.33;31.88;;;11.20;99.90;;;;;;7365697;19;20700;-50
2022/10/13 07:58:13;;;;;;;40.70;31.20;;;11.30;99.90;;;;;;7373252;19;20086;-48
2022/10/13 08:00:40;;;;;;;42.13;31.00;;;11.30;99.90;;;;;;7374566;19;20018;-49
2022/10/13 08:03:07;;;;;;;44.97;31.63;;;11.40;99.90;;;;;;7371872;19;20022;-47
2022/10/13 08:05:36;;;;;;;40.88;28.83;;;11.50;99.90;;;;;;7370427;19;20068;-49
2022/10/13 08:08:03;;;;;;;36.75;27.90;;;11.60;99.90;;;;;;7368300;19;20041;-51
2022/10/13 08:10:30;;;;;;;35.97;27.83;;;11.70;99.90;;;;;;7370500;19;20455;-47
2022/10/13 08:12:56;;;;;;;43.53;31.38;;;11.80;99.90;;;;;;7371742;19;20514;-47
2022/10/13 08:15:23;;;;;;;40.55;31.88;;;11.90;99.90;;;;;;7368729;19;20509;-47
2022/10/13 08:17:49;;;;;;;47.47;31.92;;;12.10;99.90;;;;;;7371480;19;20022;-48
2022/10/13 08:20:17;;;;;;;45.50;31.50;;;12.20;99.90;;;;;;7371834;19;20456;-47
2022/10/13 08:22:43;;;;;;;38.97;29.50;;;12.30;99.90;;;;;;7373681;19;20386;-48
2022/10/13 08:25:10;;;;;;;36.70;30.35;;;12.30;99.90;;;;;;7366943;19;20129;-50
2022/10/13 08:27:37;;;;;;;43.17;30.17;;;12.30;99.90;;;;;;7370117;19;20396;-49
2022/10/13 08:30:04;;;;;;;39.17;29.90;;;12.30;99.90;;;;;;7367888;19;20026;-51
2022/10/13 08:32:31;;;;;;;40.25;31.50;;;12.40;99.90;;;;;;7372811;19;20042;-52
2022/10/13 08:34:58;;;;;;;40.30;29.15;;;12.40;99.90;;;;;;7376900;19;20493;-48
2022/10/13 08:37:25;;;;;;;37.22;29.55;;;12.50;99.90;;;;;;7371170;19;20482;-47
2022/10/13 08:39:55;;;;;;;37.15;27.98;;;12.50;99.90;;;;;;7374464;19;20078;-47
2022/10/13 08:42:22;;;;;;;37.55;29.85;;;12.60;99.90;;;;;;7376624;19;20027;-48
2022/10/13 08:44:54;;;;;;;41.55;28.17;;;12.60;99.90;;;;;;7370663;19;20418;-50
2022/10/13 08:47:41;;;;;;;42.25;28.92;;;12.70;99.90;;;;;;7372498;19;20026;-48
2022/10/13 08:50:17;;;;;;;40.47;29.95;;;12.70;99.90;;;;;;7362014;19;20452;-49
2022/10/13 08:52:59;;;;;;;35.58;28.15;;;12.80;99.90;;;;;;7365966;19;20014;-52
2022/10/13 08:55:50;;;;;;;42.38;29.48;;;12.90;99.90;;;;;;7370468;19;20496;-52
2022/10/13 08:58:26;;;;;;;36.63;29.17;;;12.90;99.90;;;;;;7367390;19;20428;-50
2022/10/13 09:01:07;;;;;;;34.58;28.48;;;13.00;99.90;;;;;;7368660;19;20018;-49
2022/10/13 09:03:48;;;;;;;36.03;29.55;;;13.00;99.90;;;;;;7360717;19;20039;-47
2022/10/13 09:06:35;;;;;;;40.10;30.23;;;13.00;99.90;;;;;;7365930;19;20437;-49
2022/10/13 09:09:07;;;;;;;35.67;29.95;;;13.00;99.90;;;;;;7372849;19;20295;-50
2022/10/13 09:11:39;;;;;;;37.70;31.00;;;13.00;99.90;;;;;;7367495;19;20414;-50
2022/10/13 09:14:10;;;;;;;38.30;30.75;;;13.10;99.90;;;;;;7372742;19;20021;-49
2022/10/13 09:16:44;;;;;;;38.17;30.30;;;13.00;99.90;;;;;;7370397;19;20509;-49
2022/10/13 09:19:32;;;;;;;36.72;29.75;;;12.90;99.90;;;;;;7363614;19;20025;-53
2022/10/13 09:22:17;;;;;;;38.53;30.73;;;12.80;99.90;;;;;;7373518;19;21051;-51
2022/10/13 09:24:43;;;;;;;41.58;30.35;;;12.90;99.90;;;;;;7372121;19;20433;-49
2022/10/13 09:27:17;;;;;;;41.50;32.05;;;13.00;99.90;;;;;;7370891;19;20018;-53
2022/10/13 09:29:47;;;;;;;43.75;32.03;;;13.10;99.90;;;;;;7375765;19;20592;-51
2022/10/13 09:32:19;;;;;;;38.50;28.92;;;13.10;99.90;;;;;;7374987;19;20018;-51
2022/10/13 09:34:50;;;;;;;38.45;31.17;;;13.20;99.90;;;;;;7367870;19;20026;-39
2022/10/13 09:37:24;;;;;;;34.20;29.30;;;13.20;99.90;;;;;;7377572;19;20015;-40
2022/10/13 09:40:13;;;;;;;36.97;29.77;;;13.30;99.90;;;;;;7375781;19;20426;-39
2022/10/13 09:42:39;;;;;;;40.33;30.60;;;13.30;99.90;;;;;;7378451;19;20597;-39
2022/10/13 09:45:20;;;;;;;41.45;33.08;;;13.30;99.90;;;;;;7375828;19;20022;-41
2022/10/13 09:47:52;;;;;;;42.38;31.08;;;13.40;99.90;;;;;;7377881;19;20019;-40
2022/10/13 09:50:30;;;;;;;37.05;27.52;;;13.50;99.90;;;;;;7378635;19;20781;-40
2022/10/13 09:53:33;;;;;;;41.53;29.38;;;13.40;99.90;;;;;;7376424;19;20061;-39
2022/10/13 09:56:29;;;;;;;36.70;29.00;;;13.40;99.90;;;;;;7378526;19;20102;-52
2022/10/13 09:59:11;;;;;;;36.45;29.52;;;13.40;99.90;;;;;;7376860;19;20018;-40
2022/10/13 10:01:42;;;;;;;38.58;28.52;;;13.40;99.90;;;;;;7375145;19;20014;-41
2022/10/13 10:04:16;;;;;;;40.50;28.77;;;13.20;99.90;;;;;;7380705;19;20019;-40
2022/10/13 10:06:47;;;;;;;37.20;30.23;;;13.20;99.90;;;;;;7378681;19;20022;-39
2022/10/13 10:09:40;;;;;;;35.35;28.63;;;13.10;99.90;;;;;;7376894;19;20370;-54
2022/10/13 10:12:15;;;;;;;41.00;28.85;;;13.10;99.90;;;;;;7373131;19;20026;-50
2022/10/13 10:14:42;;;;;;;36.17;28.05;;;13.00;99.90;;;;;;7374124;19;20062;-53
2022/10/13 10:17:41;;;;;;;40.00;29.95;;;13.00;99.90;;;;;;7367872;19;20556;-53
2022/10/13 10:20:25;;;;;;;41.00;29.00;;;13.00;99.90;;;;;;7372209;19;20014;-51
2022/10/13 10:23:12;;;;;;;43.55;33.28;;;13.00;99.90;;;;;;7372075;19;20022;-50
2022/10/13 10:25:47;;;;;;;51.17;36.00;;;12.90;99.90;;;;;;7105826;19;20025;-49
2022/10/13 10:28:29;;;;;;;49.30;34.55;;;12.90;99.90;;;;;;7373823;19;20891;-51
2022/10/13 10:31:14;;;;;;;48.05;35.80;;;12.90;99.90;;;;;;7372649;19;20019;-51
2022/10/13 10:34:04;;;;;;;51.55;38.22;;;12.90;99.90;;;;;;7376938;19;20027;-51
2022/10/13 10:36:50;;;;;;;50.95;36.78;;;12.90;99.90;;;;;;7369903;19;20014;-47
2022/10/13 10:39:19;;;;;;;53.35;37.65;;;12.90;99.90;;;;;;7366314;19;20050;-49
2022/10/13 10:42:11;;;;;;;56.90;41.92;;;12.90;99.90;;;;;;7374402;19;20050;-50
2022/10/13 10:44:42;;;;;;;56.67;39.10;;;12.90;99.90;;;;;;7374932;19;20449;-44
2022/10/13 10:47:32;;;;;;;;;;;12.90;99.90;;;;;;7371509;19;20030;-49
2022/10/13 10:50:06;;;;;;;57.08;39.17;;;12.90;99.90;;;;;;7370417;19;20759;-48
2022/10/13 10:53:06;;;;;;;66.28;43.88;;;12.90;99.90;;;;;;7368502;19;20047;-50
2022/10/13 10:55:45;;;;;;;69.32;42.85;;;12.90;99.90;;;;;;7369259;19;20359;-52
2022/10/13 10:58:14;;;;;;;70.50;43.92;;;12.90;99.90;;;;;;7365649;19;20096;-52
2022/10/13 11:01:03;;;;;;;72.00;44.80;;;12.90;99.90;;;;;;7367103;19;20080;-48
2022/10/13 11:03:42;;;;;;;62.08;43.08;;;12.90;99.90;;;;;;7360389;19;20029;-50
2022/10/13 11:06:11;;;;;;;61.95;44.10;;;12.90;99.90;;;;;;7363281;19;20014;-51
2022/10/13 11:08:38;;;;;;;71.32;45.65;;;13.00;99.90;;;;;;7371251;19;20040;-50
2022/10/13 11:11:25;;;;;;;69.97;44.90;;;13.00;99.90;;;;;;7370295;19;20074;-53
2022/10/13 11:14:21;;;;;;;80.40;48.03;;;13.10;99.90;;;;;;7368696;19;20022;-50
2022/10/13 11:16:57;;;;;;;76.03;46.92;;;13.10;99.90;;;;;;7367322;19;20029;-51
2022/10/13 11:19:34;;;;;;;73.97;48.95;;;13.30;99.90;;;;;;7370255;19;20022;-49
2022/10/13 11:22:00;;;;;;;68.03;45.88;;;13.40;99.90;;;;;;7367837;19;20022;-48
2022/10/13 11:24:38;;;;;;;64.03;46.25;;;13.50;99.90;;;;;;7368495;19;20105;-50
2022/10/13 11:27:09;;;;;;;66.68;45.97;;;13.60;99.90;;;;;;7366529;19;20031;-49
2022/10/13 11:29:47;;;;;;;59.00;45.10;;;13.60;99.90;;;;;;7367498;19;20055;-47
2022/10/13 11:32:26;;;;;;;61.53;43.83;;;13.60;99.90;;;;;;7365899;19;20018;-48
2022/10/13 11:35:24;;;;;;;62.35;43.78;;;13.70;99.90;;;;;;7369334;19;20018;-50
2022/10/13 11:38:17;;;;;;;58.80;43.92;;;13.70;99.90;;;;;;7359030;19;20086;-48
2022/10/13 11:41:04;;;;;;;70.00;45.70;;;13.70;99.90;;;;;;7367973;19;20831;-51
2022/10/13 11:44:07;;;;;;;55.42;41.78;;;13.70;99.90;;;;;;7368541;19;20018;-48
2022/10/13 11:46:58;;;;;;;63.22;43.55;;;13.70;99.90;;;;;;7367828;19;20018;-51
2022/10/13 11:49:58;;;;;;;61.97;43.80;;;13.70;99.90;;;;;;7367559;19;20018;-48
2022/10/13 11:52:40;;;;;;;66.60;45.70;;;13.60;99.90;;;;;;7367192;19;20015;-51
2022/10/13 11:55:16;;;;;;;63.13;44.33;;;13.60;99.90;;;;;;7370941;19;20366;-49
2022/10/13 11:57:43;;;;;;;64.50;45.88;;;13.60;99.90;;;;;;7369170;19;20395;-51
2022/10/13 12:00:16;;;;;;;65.28;46.50;;;13.60;99.90;;;;;;7372288;19;20022;-50
2022/10/13 12:02:50;;;;;;;61.72;46.45;;;13.60;99.90;;;;;;7369961;19;20011;-47
2022/10/13 12:05:27;;;;;;;56.42;44.63;;;13.60;99.90;;;;;;7373081;19;20349;-48
2022/10/13 12:08:02;;;;;;;62.35;44.17;;;13.50;99.90;;;;;;7369333;19;20011;-50
2022/10/13 12:10:31;;;;;;;64.32;46.10;;;13.50;99.90;;;;;;7370552;19;20022;-49
2022/10/13 12:13:00;;;;;;;70.30;47.92;;;13.50;99.90;;;;;;7368480;19;20029;-52
2022/10/13 12:15:35;;;;;;;64.45;45.22;;;13.50;99.90;;;;;;7364433;19;20086;-48
2022/10/13 12:18:17;;;;;;;65.68;47.95;;;13.50;99.90;;;;;;7374421;19;20022;-48
2022/10/13 12:20:54;;;;;;;65.28;48.72;;;13.60;99.90;;;;;;7374452;19;20035;-40
2022/10/13 12:23:21;;;;;;;63.15;46.00;;;13.60;99.90;;;;;;7373768;19;20014;-40
2022/10/13 12:25:55;;;;;;;68.72;48.83;;;13.60;99.90;;;;;;7364881;19;20644;-40
2022/10/13 12:28:24;;;;;;;66.68;48.58;;;13.60;99.90;;;;;;7370012;19;21127;-42
2022/10/13 12:30:54;;;;;;;63.58;48.60;;;13.60;99.90;;;;;;7369719;19;20057;-40
2022/10/13 12:33:34;;;;;;;71.18;48.05;;;13.60;99.90;;;;;;7370073;19;20029;-40
2022/10/13 12:36:18;;;;;;;63.88;48.35;;;13.60;99.90;;;;;;7363810;19;20343;-40
2022/10/13 12:38:54;;;;;;;64.70;47.85;;;13.60;99.90;;;;;;7365385;19;20429;-40
2022/10/13 12:41:33;;;;;;;67.57;49.70;;;13.60;99.90;;;;;;7368298;19;20542;-40
2022/10/13 12:44:00;;;;;;;65.90;48.15;;;13.60;99.90;;;;;;7370879;19;20064;-39
2022/10/13 12:46:45;;;;;;;65.80;48.63;;;13.60;99.90;;;;;;7369763;19;20866;-39
2022/10/13 12:49:18;;;;;;;70.40;47.38;;;13.60;99.90;;;;;;7365625;19;20493;-39
2022/10/13 12:51:49;;;;;;;62.45;46.42;;;13.60;99.90;;;;;;7366195;19;20607;-41
2022/10/13 12:54:26;;;;;;;69.30;49.50;;;13.60;99.90;;;;;;7369020;19;20426;-39
2022/10/13 12:56:56;;;;;;;66.90;49.28;;;13.60;99.90;;;;;;7365885;19;20137;-39